createdAt,value
2023-03-06T00:01:55.511Z,3.75
2023-03-06T00:04:22.119Z,4.60
2023-03-06T00:06:48.759Z,6.25
2023-03-06T00:09:15.265Z,5.00
2023-03-06T00:11:41.785Z,3.38
2023-03-06T00:14:08.271Z,4.13
2023-03-06T00:16:34.943Z,5.32
2023-03-06T00:19:01.492Z,3.42
2023-03-06T00:21:28.028Z,3.20
2023-03-06T00:23:54.726Z,2.65
2023-03-06T00:26:21.286Z,4.05
2023-03-06T00:28:47.834Z,3.35
2023-03-06T00:31:14.452Z,3.92
2023-03-06T00:33:41.030Z,3.33
2023-03-06T00:36:07.915Z,3.45
2023-03-06T00:38:35.610Z,4.50
2023-03-06T00:41:10.565Z,3.90
2023-03-06T00:43:37.525Z,3.40
2023-03-06T00:46:04.247Z,4.22
2023-03-06T00:48:30.951Z,3.55
2023-03-06T00:50:57.528Z,3.97
2023-03-06T00:53:25.680Z,3.17
2023-03-06T00:55:52.258Z,2.60
2023-03-06T00:58:19.006Z,3.30
2023-03-06T01:00:45.575Z,3.05
2023-03-06T01:03:12.225Z,3.55
2023-03-06T01:05:39.339Z,2.67
2023-03-06T01:08:06.452Z,3.20
2023-03-06T01:10:33.669Z,3.33
2023-03-06T01:13:00.227Z,3.08
2023-03-06T01:15:26.765Z,2.88
2023-03-06T01:17:54.543Z,2.92
2023-03-06T01:20:22.385Z,2.13
2023-03-06T01:22:48.933Z,2.33
2023-03-06T01:25:15.548Z,2.50
2023-03-06T01:27:42.138Z,2.60
2023-03-06T01:30:09.470Z,2.40
2023-03-06T01:32:36.006Z,2.60
2023-03-06T01:35:03.870Z,2.03
2023-03-06T01:37:30.457Z,2.10
2023-03-06T01:39:57.024Z,2.40
2023-03-06T01:42:23.717Z,2.25
2023-03-06T01:45:05.742Z,2.35
2023-03-06T01:47:32.295Z,2.25
2023-03-06T01:50:01.375Z,2.47
2023-03-06T01:52:33.502Z,2.53
2023-03-06T01:55:08.594Z,1.98
2023-03-06T01:57:47.219Z,3.10
2023-03-06T02:00:18.731Z,2.20
2023-03-06T02:02:50.227Z,2.15
2023-03-06T02:05:17.039Z,2.53
2023-03-06T02:07:45.402Z,2.20
2023-03-06T02:10:13.288Z,1.90
2023-03-06T02:12:43.710Z,2.00
2023-03-06T02:15:13.029Z,1.85
2023-03-06T02:17:41.689Z,2.30
2023-03-06T02:20:08.214Z,2.50
2023-03-06T02:22:43.514Z,2.45
2023-03-06T02:25:30.381Z,2.28
2023-03-06T02:27:56.963Z,2.03
2023-03-06T02:30:26.747Z,2.97
2023-03-06T02:32:53.512Z,2.83
2023-03-06T02:35:25.447Z,2.17
2023-03-06T02:37:53.285Z,2.30
2023-03-06T02:40:23.105Z,1.90
2023-03-06T02:42:55.424Z,2.08
2023-03-06T02:45:35.886Z,2.60
2023-03-06T02:48:03.364Z,2.22
2023-03-06T02:50:31.045Z,2.42
2023-03-06T02:52:58.233Z,2.63
2023-03-06T02:55:25.020Z,2.70
2023-03-06T02:57:51.694Z,2.40
2023-03-06T03:00:19.250Z,2.55
2023-03-06T03:02:46.017Z,2.35
2023-03-06T03:05:12.615Z,2.47
2023-03-06T03:07:39.146Z,1.98
2023-03-06T03:10:06.235Z,2.80
2023-03-06T03:12:33.479Z,2.55
2023-03-06T03:15:00.013Z,2.90
2023-03-06T03:17:26.686Z,2.50
2023-03-06T03:19:53.416Z,2.28
2023-03-06T03:22:20.490Z,2.75
2023-03-06T03:24:47.672Z,2.60
2023-03-06T03:27:14.547Z,2.03
2023-03-06T03:29:41.408Z,2.35
2023-03-06T03:32:08.198Z,2.50
2023-03-06T03:34:34.834Z,1.75
2023-03-06T03:37:01.587Z,2.42
2023-03-06T03:39:28.208Z,2.30
2023-03-06T03:41:54.880Z,2.80
2023-03-06T03:44:21.401Z,2.75
2023-03-06T03:46:48.036Z,2.75
2023-03-06T03:49:15.272Z,2.40
2023-03-06T03:51:41.827Z,2.83
2023-03-06T03:54:08.458Z,2.67
2023-03-06T03:56:35.179Z,2.78
2023-03-06T03:59:01.938Z,3.25
2023-03-06T04:01:28.489Z,2.30
2023-03-06T04:03:55.107Z,2.95
2023-03-06T04:06:21.673Z,2.85
2023-03-06T04:08:48.260Z,2.58
2023-03-06T04:11:15.183Z,2.97
2023-03-06T04:13:41.750Z,3.13
2023-03-06T04:16:08.488Z,2.53
2023-03-06T04:18:35.249Z,2.80
2023-03-06T04:21:01.851Z,2.92
2023-03-06T04:23:28.790Z,3.05
2023-03-06T04:25:55.504Z,2.78
2023-03-06T04:28:22.083Z,3.40
2023-03-06T04:30:48.596Z,2.60
2023-03-06T04:33:16.492Z,3.22
2023-03-06T04:35:43.130Z,3.20
2023-03-06T04:38:09.973Z,3.50
2023-03-06T04:40:36.977Z,2.78
2023-03-06T04:43:04.175Z,3.10
2023-03-06T04:45:32.339Z,2.90
2023-03-06T04:47:59.558Z,4.00
2023-03-06T04:50:28.158Z,3.20
2023-03-06T04:52:54.743Z,5.15
2023-03-06T04:55:21.416Z,3.80
2023-03-06T04:57:48.381Z,3.03
2023-03-06T05:00:19.277Z,3.55
2023-03-06T05:02:46.304Z,3.35
2023-03-06T05:05:14.349Z,3.05
2023-03-06T05:07:42.367Z,4.45
2023-03-06T05:10:12.725Z,3.70
2023-03-06T05:12:39.578Z,3.30
2023-03-06T05:15:08.203Z,2.80
2023-03-06T05:17:35.039Z,3.25
2023-03-06T05:20:01.627Z,3.20
2023-03-06T05:22:28.238Z,4.07
2023-03-06T05:24:54.838Z,4.32
2023-03-06T05:27:21.402Z,3.33
2023-03-06T05:29:48.005Z,4.13
2023-03-06T05:32:16.189Z,3.13
2023-03-06T05:34:43.024Z,3.65
2023-03-06T05:37:09.666Z,3.92
2023-03-06T05:39:36.214Z,3.28
2023-03-06T05:42:03.108Z,3.42
2023-03-06T05:44:33.858Z,4.30
2023-03-06T05:47:00.466Z,3.28
2023-03-06T05:49:31.479Z,4.50
2023-03-06T05:51:58.165Z,4.13
2023-03-06T05:54:26.214Z,4.10
2023-03-06T05:56:52.773Z,3.38
2023-03-06T05:59:19.355Z,4.05
2023-03-06T06:01:45.996Z,3.58
2023-03-06T06:04:12.534Z,3.05
2023-03-06T06:06:39.076Z,2.97
2023-03-06T06:09:05.631Z,5.20
2023-03-06T06:11:32.184Z,3.63
2023-03-06T06:13:58.746Z,4.10
2023-03-06T06:16:25.298Z,3.03
2023-03-06T06:18:51.833Z,3.55
2023-03-06T06:21:18.364Z,3.13
2023-03-06T06:23:44.992Z,3.60
2023-03-06T06:26:11.864Z,4.32
2023-03-06T06:28:38.398Z,3.47
2023-03-06T06:31:10.726Z,2.80
2023-03-06T06:33:37.538Z,3.65
2023-03-06T06:36:04.418Z,4.28
2023-03-06T06:38:30.968Z,4.30
2023-03-06T06:41:30.606Z,3.67
2023-03-06T06:43:44.047Z,3.50
2023-03-06T06:46:44.613Z,3.88
2023-03-06T06:48:57.069Z,3.67
2023-03-06T06:51:23.717Z,4.28
2023-03-06T06:53:53.311Z,3.92
2023-03-06T06:56:19.833Z,4.38
2023-03-06T06:58:46.410Z,3.45
2023-03-06T07:01:13.690Z,4.50
2023-03-06T07:03:40.933Z,3.50
2023-03-06T07:06:08.269Z,4.53
2023-03-06T07:08:35.208Z,3.63
2023-03-06T07:11:07.852Z,3.28
2023-03-06T07:13:35.167Z,4.93
2023-03-06T07:16:02.007Z,4.20
2023-03-06T07:18:28.632Z,3.85
2023-03-06T07:20:55.910Z,3.50
2023-03-06T07:23:23.345Z,3.22
2023-03-06T07:25:50.661Z,3.78
2023-03-06T07:28:18.654Z,4.28
2023-03-06T07:31:03.394Z,3.53
2023-03-06T07:36:19.441Z,3.80
2023-03-06T07:38:46.005Z,3.22
2023-03-06T07:41:14.500Z,3.42
2023-03-06T07:43:41.848Z,6.00
2023-03-06T07:46:09.191Z,3.63
2023-03-06T07:48:36.791Z,3.42
2023-03-06T07:51:07.177Z,3.83
2023-03-06T07:53:34.496Z,2.78
2023-03-06T07:56:01.434Z,3.65
2023-03-06T07:58:27.991Z,3.28
2023-03-06T08:00:54.830Z,3.70
2023-03-06T08:03:21.385Z,3.47
2023-03-06T08:05:47.935Z,3.03
2023-03-06T08:08:14.677Z,4.55
2023-03-06T08:10:41.275Z,3.00
2023-03-06T08:13:07.838Z,2.95
2023-03-06T08:15:34.363Z,2.83
2023-03-06T08:18:00.884Z,3.45
2023-03-06T08:20:27.550Z,3.60
2023-03-06T08:22:54.124Z,3.00
2023-03-06T08:25:20.661Z,3.72
2023-03-06T08:27:47.467Z,2.90
2023-03-06T08:30:14.832Z,3.30
2023-03-06T08:32:41.494Z,3.80
2023-03-06T08:35:08.506Z,3.40
2023-03-06T08:37:35.149Z,2.72
2023-03-06T08:40:04.570Z,3.40
2023-03-06T08:42:32.262Z,3.17
2023-03-06T08:44:58.886Z,2.67
2023-03-06T08:47:25.748Z,2.97
2023-03-06T08:49:52.469Z,3.30
2023-03-06T08:52:19.914Z,3.90
2023-03-06T08:54:46.632Z,3.65
2023-03-06T08:57:13.172Z,2.53
2023-03-06T08:59:39.752Z,4.15
2023-03-06T09:02:07.681Z,3.28
2023-03-06T09:04:34.570Z,2.80
2023-03-06T09:07:01.516Z,3.30
2023-03-06T09:09:28.076Z,3.35
2023-03-06T09:11:55.072Z,3.80
2023-03-06T09:14:22.032Z,2.90
2023-03-06T09:16:48.639Z,3.13
2023-03-06T09:19:15.228Z,3.00
2023-03-06T09:21:42.143Z,3.13
2023-03-06T09:24:08.960Z,3.63
2023-03-06T09:26:45.590Z,3.28
2023-03-06T09:29:13.771Z,3.58
2023-03-06T09:31:40.502Z,4.43
2023-03-06T09:34:07.026Z,3.00
2023-03-06T09:36:45.674Z,2.92
2023-03-06T09:39:20.135Z,2.67
2023-03-06T09:41:49.632Z,2.92
2023-03-06T09:44:21.407Z,3.03
2023-03-06T09:47:03.551Z,3.67
2023-03-06T09:49:48.413Z,2.80
2023-03-06T09:52:30.132Z,2.50
2023-03-06T09:55:14.956Z,3.17
2023-03-06T09:57:52.362Z,2.88
2023-03-06T10:00:50.781Z,3.05
2023-03-06T10:03:33.053Z,3.50
2023-03-06T10:06:15.546Z,3.22
2023-03-06T10:09:00.809Z,3.42
2023-03-06T10:11:47.217Z,3.10
2023-03-06T10:14:21.498Z,4.03
2023-03-06T10:16:48.111Z,3.15
2023-03-06T10:19:20.325Z,3.35
2023-03-06T10:21:46.854Z,2.90
2023-03-06T10:24:19.405Z,3.63
2023-03-06T10:26:55.078Z,3.53
2023-03-06T10:29:24.326Z,3.65
2023-03-06T10:32:01.318Z,3.40
2023-03-06T10:34:36.355Z,3.25
2023-03-06T10:37:17.700Z,3.90
2023-03-06T10:39:44.219Z,3.83
2023-03-06T10:42:10.844Z,4.38
2023-03-06T10:44:37.497Z,3.20
2023-03-06T10:47:35.246Z,3.13
2023-03-06T10:50:08.038Z,4.75
2023-03-06T10:52:36.074Z,3.17
2023-03-06T10:55:26.933Z,3.88
2023-03-06T10:57:53.783Z,3.25
2023-03-06T11:00:32.954Z,3.85
2023-03-06T11:03:24.585Z,4.25
2023-03-06T11:06:35.087Z,3.60
2023-03-06T11:09:20.659Z,3.35
2023-03-06T11:11:47.338Z,4.22
2023-03-06T11:14:17.687Z,4.10
2023-03-06T11:16:53.567Z,3.95
2023-03-06T11:19:28.020Z,5.38
2023-03-06T11:22:10.903Z,3.42
2023-03-06T11:24:43.554Z,3.38
2023-03-06T11:27:34.984Z,3.72
2023-03-06T11:30:15.259Z,4.40
2023-03-06T11:32:57.568Z,4.65
2023-03-06T11:35:30.888Z,3.50
2023-03-06T11:38:04.297Z,4.03
2023-03-06T11:40:45.541Z,4.68
2023-03-06T11:43:49.830Z,4.25
2023-03-06T11:46:24.823Z,4.13
2023-03-06T11:48:58.219Z,3.83
2023-03-06T11:51:29.156Z,3.72
2023-03-06T11:53:59.942Z,4.10
2023-03-06T11:56:35.731Z,4.80
2023-03-06T11:59:26.083Z,3.70
2023-03-06T12:02:04.231Z,5.50
2023-03-06T12:04:39.927Z,4.85
2023-03-06T12:07:30.548Z,4.05
2023-03-06T12:10:10.252Z,4.35
2023-03-06T12:12:58.657Z,4.65
2023-03-06T12:15:36.954Z,3.50
2023-03-06T12:18:22.232Z,4.07
2023-03-06T12:21:04.060Z,5.03
2023-03-06T12:23:42.961Z,3.85
2023-03-06T12:26:21.952Z,4.25
2023-03-06T12:29:02.701Z,3.55
2023-03-06T12:31:43.834Z,4.80
2023-03-06T12:34:28.571Z,4.85
2023-03-06T12:37:20.914Z,3.90
2023-03-06T12:40:10.015Z,4.30
2023-03-06T12:43:18.712Z,5.25
2023-03-06T12:45:46.862Z,3.70
2023-03-06T12:48:21.191Z,3.88
2023-03-06T12:50:48.956Z,4.60
2023-03-06T12:53:30.573Z,4.90
2023-03-06T12:55:58.886Z,4.10
2023-03-06T12:58:28.361Z,4.00
2023-03-06T13:01:20.118Z,5.00
2023-03-06T13:04:20.232Z,6.28
2023-03-06T13:07:01.981Z,4.68
2023-03-06T13:09:38.871Z,4.25
2023-03-06T13:12:14.632Z,4.50
2023-03-06T13:14:48.698Z,5.63
2023-03-06T13:17:20.576Z,4.75
2023-03-06T13:19:48.225Z,4.63
2023-03-06T13:22:35.059Z,4.32
2023-03-06T13:25:20.037Z,4.43
2023-03-06T13:27:53.117Z,4.70
2023-03-06T13:30:22.748Z,5.28
2023-03-06T13:32:52.800Z,4.63
2023-03-06T13:35:39.564Z,4.57
2023-03-06T13:38:34.990Z,3.97
2023-03-06T13:41:30.703Z,3.75
2023-03-06T13:43:59.662Z,5.40
2023-03-06T13:46:30.384Z,4.75
2023-03-06T13:49:09.317Z,4.13
2023-03-06T13:51:42.114Z,3.50
2023-03-06T13:54:43.932Z,4.90
2023-03-06T13:57:10.538Z,3.97
2023-03-06T14:00:28.050Z,5.22
2023-03-06T14:03:05.226Z,4.30
2023-03-06T14:05:46.680Z,4.05
2023-03-06T14:08:22.239Z,4.70
2023-03-06T14:11:00.679Z,4.25
2023-03-06T14:13:41.813Z,4.30
2023-03-06T14:16:20.118Z,4.47
2023-03-06T14:18:49.375Z,4.18
2023-03-06T14:21:25.937Z,4.28
2023-03-06T14:24:00.969Z,4.07
2023-03-06T14:26:31.866Z,3.92
2023-03-06T14:29:00.563Z,4.28
2023-03-06T14:31:42.486Z,3.63
2023-03-06T14:34:23.997Z,3.90
2023-03-06T14:36:56.222Z,4.63
2023-03-06T14:39:37.135Z,4.50
2023-03-06T14:42:09.086Z,4.32
2023-03-06T14:44:35.693Z,4.63
2023-03-06T14:47:23.291Z,3.97
2023-03-06T14:50:24.835Z,4.05
2023-03-06T14:52:58.109Z,3.63
2023-03-06T14:55:27.223Z,3.50
2023-03-06T14:58:12.534Z,4.20
2023-03-06T15:00:46.222Z,5.03
2023-03-06T15:05:45.727Z,4.53
2023-03-06T15:08:18.340Z,6.00
2023-03-06T15:10:59.616Z,4.65
2023-03-06T15:13:28.832Z,4.53
2023-03-06T15:16:07.762Z,4.30
2023-03-06T15:18:36.184Z,4.57
2023-03-06T15:21:08.515Z,4.93
2023-03-06T15:26:22.961Z,4.30
2023-03-06T15:29:10.362Z,4.68
2023-03-06T15:31:39.785Z,4.78
2023-03-06T15:34:06.324Z,4.32
2023-03-06T15:36:35.084Z,3.95
2023-03-06T15:39:01.941Z,4.85
2023-03-06T15:41:36.332Z,4.32
2023-03-06T15:44:14.582Z,5.03
2023-03-06T15:46:41.824Z,4.07
2023-03-06T15:49:16.640Z,4.30
2023-03-06T15:51:43.800Z,5.40
2023-03-06T15:54:12.539Z,5.30
2023-03-06T15:56:42.932Z,5.97
2023-03-06T15:59:18.243Z,5.60
2023-03-06T16:01:45.546Z,6.07
2023-03-06T16:04:12.177Z,7.03
2023-03-06T16:06:38.868Z,5.30
2023-03-06T16:09:05.948Z,4.28
2023-03-06T16:11:43.228Z,10.85
2023-03-06T16:14:21.374Z,16.13
2023-03-06T16:16:49.249Z,10.38
2023-03-06T16:19:29.266Z,7.22
2023-03-06T16:21:56.749Z,7.50
2023-03-06T16:24:23.415Z,6.10
2023-03-06T16:26:51.932Z,6.90
2023-03-06T16:29:19.621Z,4.90
2023-03-06T16:31:46.503Z,6.55
2023-03-06T16:34:13.622Z,6.30
2023-03-06T16:36:40.709Z,5.72
2023-03-06T16:39:13.506Z,5.88
2023-03-06T16:41:40.043Z,5.63
2023-03-06T16:44:07.838Z,6.60
2023-03-06T16:46:39.193Z,6.93
2023-03-06T16:49:05.997Z,7.13
2023-03-06T16:51:33.484Z,6.45
2023-03-06T16:54:00.168Z,4.55
2023-03-06T16:56:29.944Z,4.53
2023-03-06T16:58:56.482Z,7.53
2023-03-06T17:01:23.298Z,6.90
2023-03-06T17:03:49.933Z,7.18
2023-03-06T17:06:19.125Z,7.38
2023-03-06T17:08:47.074Z,6.68
2023-03-06T17:11:14.212Z,8.13
2023-03-06T17:13:41.359Z,6.85
2023-03-06T17:16:11.244Z,7.50
2023-03-06T17:18:37.926Z,8.02
2023-03-06T17:21:04.760Z,8.20
2023-03-06T17:23:31.440Z,7.03
2023-03-06T17:26:10.359Z,6.93
2023-03-06T17:28:37.999Z,8.10
2023-03-06T17:31:30.863Z,8.88
2023-03-06T17:34:00.533Z,8.90
2023-03-06T17:36:29.970Z,9.77
2023-03-06T17:38:58.368Z,7.80
2023-03-06T17:41:25.581Z,8.13
2023-03-06T17:43:54.924Z,7.50
2023-03-06T17:46:21.760Z,6.75
2023-03-06T17:48:48.367Z,6.05
2023-03-06T17:51:15.047Z,6.82
2023-03-06T17:53:41.839Z,8.88
2023-03-06T17:56:11.774Z,8.25
2023-03-06T17:58:38.440Z,6.05
2023-03-06T18:01:16.667Z,6.85
2023-03-06T18:03:48.695Z,8.98
2023-03-06T18:06:16.480Z,8.80
2023-03-06T18:08:43.123Z,10.10
2023-03-06T18:11:12.215Z,10.10
2023-03-06T18:13:41.998Z,15.88
2023-03-06T18:16:11.578Z,10.88
2023-03-06T18:18:38.577Z,11.48
2023-03-06T18:21:06.726Z,9.13
2023-03-06T18:23:33.768Z,8.77
2023-03-06T18:26:14.305Z,10.15
2023-03-06T18:28:44.422Z,11.75
2023-03-06T18:31:14.821Z,11.38
2023-03-06T18:33:41.522Z,11.73
2023-03-06T18:36:08.282Z,10.15
2023-03-06T18:38:35.121Z,11.93
2023-03-06T18:41:01.648Z,11.32
2023-03-06T18:43:28.187Z,10.77
2023-03-06T18:45:58.374Z,10.43
2023-03-06T18:48:24.989Z,11.13
2023-03-06T18:50:51.528Z,10.75
2023-03-06T18:53:18.677Z,11.32
2023-03-06T18:55:54.146Z,12.40
2023-03-06T18:58:21.824Z,11.60
2023-03-06T19:00:49.439Z,11.90
2023-03-06T19:03:16.513Z,10.35
2023-03-06T19:05:45.777Z,10.30
2023-03-06T19:08:12.371Z,9.75
2023-03-06T19:10:41.551Z,9.88
2023-03-06T19:13:10.081Z,8.63
2023-03-06T19:15:45.678Z,11.20
2023-03-06T19:18:15.743Z,9.82
2023-03-06T19:20:43.044Z,12.00
2023-03-06T19:23:09.938Z,11.32
2023-03-06T19:25:36.787Z,12.52
2023-03-06T19:28:03.796Z,16.05
2023-03-06T19:30:30.350Z,15.73
2023-03-06T19:32:57.104Z,11.07
2023-03-06T19:35:25.011Z,14.38
2023-03-06T19:37:52.344Z,20.52
2023-03-06T19:40:19.556Z,20.65
2023-03-06T19:42:46.529Z,7.35
2023-03-06T19:45:13.172Z,8.90
2023-03-06T19:47:39.770Z,9.23
2023-03-06T19:50:06.842Z,8.57
2023-03-06T19:52:36.563Z,9.02
2023-03-06T19:55:03.350Z,6.47
2023-03-06T19:57:29.942Z,7.95
2023-03-06T19:59:58.496Z,10.15
2023-03-06T20:02:27.210Z,9.95
2023-03-06T20:04:54.860Z,9.77
2023-03-06T20:07:21.626Z,6.40
2023-03-06T20:09:48.327Z,9.57
2023-03-06T20:12:15.714Z,9.88
2023-03-06T20:14:43.132Z,10.40
2023-03-06T20:17:09.784Z,9.18
2023-03-06T20:19:36.805Z,8.80
2023-03-06T20:22:03.484Z,9.60
2023-03-06T20:24:30.053Z,9.80
2023-03-06T20:26:58.427Z,8.82
2023-03-06T20:29:28.119Z,11.10
2023-03-06T20:31:56.226Z,9.18
2023-03-06T20:34:23.653Z,8.73
2023-03-06T20:36:50.939Z,8.82
2023-03-06T20:39:19.281Z,7.13
2023-03-06T20:41:46.809Z,8.73
2023-03-06T20:44:17.187Z,8.60
2023-03-06T20:46:44.475Z,7.30
2023-03-06T20:49:12.718Z,6.13
2023-03-06T20:51:40.426Z,7.93
2023-03-06T20:54:08.647Z,10.27
2023-03-06T20:56:37.081Z,10.07
2023-03-06T20:59:03.658Z,10.18
2023-03-06T21:01:33.666Z,10.57
2023-03-06T21:04:01.520Z,11.07
2023-03-06T21:06:29.182Z,11.50
2023-03-06T21:08:56.786Z,11.00
2023-03-06T21:11:23.577Z,10.27
2023-03-06T21:13:50.190Z,9.75
2023-03-06T21:16:19.155Z,10.77
2023-03-06T21:18:46.071Z,8.75
2023-03-06T21:21:15.222Z,9.88
2023-03-06T21:23:42.522Z,6.18
2023-03-06T21:26:13.188Z,6.03
2023-03-06T21:28:40.045Z,5.15
2023-03-06T21:31:09.203Z,4.53
2023-03-06T21:33:36.459Z,6.32
2023-03-06T21:36:03.631Z,6.22
2023-03-06T21:38:30.432Z,5.75
2023-03-06T21:40:57.008Z,6.68
2023-03-06T21:43:23.574Z,6.85
2023-03-06T21:45:52.725Z,7.00
2023-03-06T21:48:19.358Z,7.05
2023-03-06T21:50:45.927Z,7.43
2023-03-06T21:53:12.508Z,9.05
2023-03-06T21:55:40.796Z,10.00
2023-03-06T21:58:08.617Z,7.28
2023-03-06T22:00:36.487Z,7.75
2023-03-06T22:03:04.732Z,7.05
2023-03-06T22:05:34.189Z,7.47
2023-03-06T22:08:00.888Z,7.30
2023-03-06T22:10:27.480Z,5.88
2023-03-06T22:12:54.027Z,6.13
2023-03-06T22:15:21.899Z,9.02
2023-03-06T22:17:48.680Z,10.07
2023-03-06T22:20:15.497Z,10.93
2023-03-06T22:22:42.344Z,8.18
2023-03-06T22:25:09.287Z,7.45
2023-03-06T22:27:35.844Z,8.40
2023-03-06T22:30:02.534Z,8.80
2023-03-06T22:32:29.122Z,9.85
2023-03-06T22:34:55.715Z,7.80
2023-03-06T22:37:22.279Z,10.13
2023-03-06T22:39:48.837Z,8.88
2023-03-06T22:42:15.422Z,8.18
2023-03-06T22:44:42.003Z,7.47
2023-03-06T22:47:08.504Z,10.63
2023-03-06T22:49:35.015Z,10.10
2023-03-06T22:52:01.555Z,10.98
2023-03-06T22:54:30.204Z,8.23
2023-03-06T22:56:56.723Z,8.05
2023-03-06T22:59:23.245Z,10.40
2023-03-06T23:01:49.780Z,8.57
2023-03-06T23:04:16.438Z,10.05
2023-03-06T23:06:43.511Z,10.27
2023-03-06T23:09:20.575Z,8.55
2023-03-06T23:11:48.191Z,10.00
2023-03-06T23:14:16.597Z,11.52
2023-03-06T23:16:43.865Z,11.75
2023-03-06T23:19:10.429Z,11.52
2023-03-06T23:21:37.066Z,10.90
2023-03-06T23:24:04.409Z,11.07
2023-03-06T23:26:31.962Z,10.57
2023-03-06T23:28:58.558Z,10.27
2023-03-06T23:31:28.862Z,8.43
2023-03-06T23:34:02.530Z,11.40
2023-03-06T23:36:30.306Z,9.40
2023-03-06T23:38:57.616Z,10.30
2023-03-06T23:41:24.589Z,9.02
2023-03-06T23:43:53.487Z,10.60
2023-03-06T23:46:21.312Z,10.05
2023-03-06T23:48:47.890Z,8.43
2023-03-06T23:51:19.828Z,8.68
2023-03-06T23:53:47.597Z,11.18
2023-03-06T23:56:14.677Z,10.90
2023-03-06T23:58:41.313Z,9.73
